Time;durP1;ratioP1;P1;durP2;ratioP2;P2;SDS_P1;SDS_P2;PMS_P1;PMS_P2;Temp;Humidity;BMP_temperature;BMP_pressure;BME280_temperature;BME280_humidity;BME280_pressure;Samples;Min_cycle;Max_cycle;Signal;HPM_P1;HPM_P2
2022/03/19 00:01:03;;;;;;;10.68;9.57;;;7.80;99.90;;;;;;5047592;28;20304;-76
2022/03/19 00:03:32;;;;;;;10.32;9.02;;;7.80;99.90;;;;;;5045305;28;20199;-76
2022/03/19 00:06:01;;;;;;;16.42;12.55;;;7.80;99.90;;;;;;5043415;28;20222;-77
2022/03/19 00:08:28;;;;;;;12.50;10.65;;;7.80;99.90;;;;;;5044123;28;20204;-77
2022/03/19 00:10:56;;;;;;;13.60;11.27;;;7.80;99.90;;;;;;5040520;28;20723;-75
2022/03/19 00:13:23;;;;;;;12.10;10.95;;;7.80;99.90;;;;;;5056551;28;20199;-78
2022/03/19 00:15:52;;;;;;;12.90;11.65;;;7.80;99.90;;;;;;5050039;28;20212;-78
2022/03/19 00:18:19;;;;;;;13.40;11.25;;;7.80;99.90;;;;;;5048669;28;20202;-78
2022/03/19 00:20:46;;;;;;;12.20;11.00;;;7.70;99.90;;;;;;5048630;28;20269;-79
2022/03/19 00:23:15;;;;;;;12.73;11.43;;;7.60;99.90;;;;;;5046565;28;20207;-77
2022/03/19 00:25:43;;;;;;;11.05;10.02;;;7.60;99.90;;;;;;5046040;28;20761;-74
2022/03/19 00:28:12;;;;;;;11.35;10.15;;;7.60;99.90;;;;;;5047202;28;20244;-76
2022/03/19 00:30:39;;;;;;;12.90;11.50;;;7.50;99.90;;;;;;5047220;28;20244;-75
2022/03/19 00:33:06;;;;;;;10.98;9.88;;;7.50;99.90;;;;;;5039827;28;20203;-75
2022/03/19 00:35:33;;;;;;;12.07;10.70;;;7.50;99.90;;;;;;5044587;28;20810;-74
2022/03/19 00:38:01;;;;;;;12.32;11.02;;;7.50;99.90;;;;;;5041105;28;20213;-76
2022/03/19 00:40:28;;;;;;;12.73;11.43;;;7.40;99.90;;;;;;5047135;28;20728;-78
2022/03/19 00:42:55;;;;;;;14.48;12.70;;;7.40;99.90;;;;;;5042701;28;20202;-75
2022/03/19 00:45:24;;;;;;;13.00;11.65;;;7.30;99.90;;;;;;5047603;28;20632;-74
2022/03/19 00:47:51;;;;;;;12.48;11.18;;;7.30;99.90;;;;;;5044038;28;20202;-75
2022/03/19 00:50:18;;;;;;;12.68;11.43;;;7.30;99.90;;;;;;5042963;28;20225;-75
2022/03/19 00:52:45;;;;;;;12.45;11.05;;;7.30;99.90;;;;;;5044076;28;20199;-78
2022/03/19 00:55:13;;;;;;;14.20;11.55;;;7.30;99.90;;;;;;5041155;28;20225;-76
2022/03/19 00:57:42;;;;;;;13.73;12.27;;;7.30;99.90;;;;;;5043389;28;20194;-76
2022/03/19 01:00:11;;;;;;;13.63;12.20;;;7.30;99.90;;;;;;5050543;28;20215;-76
2022/03/19 01:02:40;;;;;;;12.48;11.18;;;7.30;99.90;;;;;;5042762;28;20742;-78
2022/03/19 01:05:08;;;;;;;15.20;12.52;;;7.40;99.90;;;;;;5048708;28;20932;-75
2022/03/19 01:07:41;;;;;;;13.50;12.07;;;7.40;99.90;;;;;;5043198;28;20289;-76
2022/03/19 01:10:09;;;;;;;14.23;12.60;;;7.40;99.90;;;;;;5033702;28;20220;-76
2022/03/19 01:12:36;;;;;;;13.77;12.30;;;7.50;99.90;;;;;;5047999;28;20214;-76
2022/03/19 01:15:04;;;;;;;13.73;12.20;;;7.50;99.90;;;;;;5041802;28;20218;-75
2022/03/19 01:17:31;;;;;;;14.35;12.18;;;7.40;99.90;;;;;;5043891;28;20596;-74
2022/03/19 01:20:01;;;;;;;16.35;13.13;;;7.30;99.90;;;;;;5051527;28;20214;-74
2022/03/19 01:22:28;;;;;;;14.38;12.88;;;7.30;99.90;;;;;;5043033;28;20243;-75
2022/03/19 01:24:56;;;;;;;14.00;12.27;;;7.30;99.90;;;;;;5045143;28;20219;-74
2022/03/19 01:27:23;;;;;;;11.98;10.73;;;7.30;99.90;;;;;;5051735;28;20285;-75
2022/03/19 01:29:50;;;;;;;13.52;12.23;;;7.30;99.90;;;;;;5045248;28;20586;-76
2022/03/19 01:32:17;;;;;;;12.05;10.85;;;7.30;99.90;;;;;;5044945;28;20717;-74
2022/03/19 01:34:44;;;;;;;10.98;9.88;;;7.30;99.90;;;;;;5049280;28;20319;-75
2022/03/19 01:37:13;;;;;;;11.25;10.10;;;7.30;99.90;;;;;;5044220;28;20199;-75
2022/03/19 01:39:40;;;;;;;11.13;9.93;;;7.30;99.90;;;;;;5044368;28;20757;-75
2022/03/19 01:42:07;;;;;;;10.98;9.98;;;7.40;99.90;;;;;;5033206;28;20222;-77
2022/03/19 01:44:34;;;;;;;11.88;10.68;;;7.40;99.90;;;;;;5046401;28;20213;-75
2022/03/19 01:47:04;;;;;;;11.85;10.48;;;7.40;99.90;;;;;;5046494;28;20195;-76
2022/03/19 01:49:32;;;;;;;11.05;9.93;;;7.30;99.90;;;;;;5046827;28;20219;-75
2022/03/19 01:51:59;;;;;;;11.88;10.68;;;7.30;99.90;;;;;;5047031;28;20214;-74
2022/03/19 01:54:30;;;;;;;10.90;9.80;;;7.20;99.90;;;;;;5049995;28;20222;-77
2022/03/19 01:56:58;;;;;;;11.30;9.70;;;7.20;99.90;;;;;;5045660;28;20206;-75
2022/03/19 01:59:28;;;;;;;10.35;9.35;;;7.10;99.90;;;;;;5043273;28;20756;-76
2022/03/19 02:01:56;;;;;;;10.93;9.82;;;7.10;99.90;;;;;;5045771;28;20223;-76
2022/03/19 02:04:24;;;;;;;10.27;9.30;;;7.10;99.90;;;;;;5048498;28;20210;-77
2022/03/19 02:06:51;;;;;;;10.07;9.07;;;7.10;99.90;;;;;;5042866;28;20630;-76
2022/03/19 02:09:18;;;;;;;9.75;8.77;;;7.10;99.90;;;;;;5047312;28;20684;-75
2022/03/19 02:11:47;;;;;;;10.32;9.35;;;7.10;99.90;;;;;;5044657;28;20960;-76
2022/03/19 02:14:15;;;;;;;10.30;9.32;;;7.10;99.90;;;;;;5045031;28;20207;-74
2022/03/19 02:16:43;;;;;;;10.35;9.20;;;7.00;99.90;;;;;;5044530;28;20664;-76
2022/03/19 02:19:10;;;;;;;11.13;10.02;;;7.00;99.90;;;;;;5046320;28;20245;-76
2022/03/19 02:21:41;;;;;;;9.77;8.88;;;7.00;99.90;;;;;;5047160;28;20221;-75
2022/03/19 02:26:55;;;;;;;10.27;9.27;;;6.90;99.90;;;;;;5039009;28;20242;-77
2022/03/19 02:29:23;;;;;;;11.18;10.07;;;6.90;99.90;;;;;;5046672;28;20250;-75
2022/03/19 02:31:52;;;;;;;11.07;9.93;;;6.80;99.90;;;;;;5037136;28;20219;-76
2022/03/19 02:34:19;;;;;;;10.95;9.85;;;6.80;99.90;;;;;;5042275;28;20199;-74
2022/03/19 02:36:47;;;;;;;10.77;9.77;;;6.80;99.90;;;;;;5040470;28;20212;-75
2022/03/19 02:39:17;;;;;;;12.48;10.18;;;6.80;99.90;;;;;;5047297;28;20577;-74
2022/03/19 02:41:45;;;;;;;11.73;10.52;;;6.70;99.90;;;;;;5051244;28;20226;-75
2022/03/19 02:44:13;;;;;;;10.65;9.65;;;6.70;99.90;;;;;;5046475;28;20199;-76
2022/03/19 02:46:42;;;;;;;10.68;9.57;;;6.70;99.90;;;;;;5041280;28;20862;-77
2022/03/19 02:49:09;;;;;;;11.48;9.80;;;6.70;99.90;;;;;;5049575;28;20198;-76
2022/03/19 02:51:37;;;;;;;11.32;10.23;;;6.70;99.90;;;;;;5047830;28;20218;-76
2022/03/19 02:54:06;;;;;;;12.05;10.77;;;6.70;99.90;;;;;;5042128;28;20211;-76
2022/03/19 02:56:36;;;;;;;10.45;9.45;;;6.60;99.90;;;;;;5047552;28;20233;-77
2022/03/19 02:59:07;;;;;;;9.85;8.93;;;6.60;99.90;;;;;;5045698;28;20241;-77
2022/03/19 03:01:34;;;;;;;11.27;9.38;;;6.60;99.90;;;;;;5048634;28;20488;-74
2022/03/19 03:04:01;;;;;;;10.15;9.00;;;6.60;99.90;;;;;;5043380;28;20207;-74
2022/03/19 03:06:29;;;;;;;10.25;9.25;;;6.70;99.90;;;;;;5048432;28;20238;-75
2022/03/19 03:08:57;;;;;;;11.20;10.10;;;6.70;99.90;;;;;;5042044;28;20808;-76
2022/03/19 03:11:24;;;;;;;11.50;10.40;;;6.60;99.90;;;;;;5049340;28;20314;-76
2022/03/19 03:13:52;;;;;;;11.05;9.95;;;6.60;99.90;;;;;;5049340;28;20717;-75
2022/03/19 03:16:19;;;;;;;10.65;9.52;;;6.60;99.90;;;;;;5052558;28;20204;-75
2022/03/19 03:18:47;;;;;;;11.25;10.02;;;6.60;99.90;;;;;;5042137;28;20617;-76
2022/03/19 03:21:14;;;;;;;11.40;10.07;;;6.60;99.90;;;;;;5043512;28;20231;-76
2022/03/19 03:23:41;;;;;;;12.25;11.05;;;6.60;99.90;;;;;;5056437;28;20198;-76
2022/03/19 03:26:08;;;;;;;10.93;9.93;;;6.50;99.90;;;;;;5044620;28;20289;-75
2022/03/19 03:28:35;;;;;;;11.35;10.25;;;6.50;99.90;;;;;;5049948;28;20205;-78
2022/03/19 03:31:04;;;;;;;11.50;10.32;;;6.50;99.90;;;;;;5041039;28;20578;-76
2022/03/19 03:33:31;;;;;;;10.98;9.98;;;6.50;99.90;;;;;;5044964;28;20191;-76
2022/03/19 03:35:58;;;;;;;10.50;9.50;;;6.60;99.90;;;;;;5045049;28;20222;-77
2022/03/19 03:38:25;;;;;;;9.95;8.80;;;6.60;99.90;;;;;;5044623;28;20246;-76
2022/03/19 03:43:19;;;;;;;10.32;9.32;;;6.50;99.90;;;;;;5061578;23;20242;-78
2022/03/19 03:45:46;;;;;;;9.98;9.07;;;6.50;99.90;;;;;;5042212;28;20234;-76
2022/03/19 03:48:14;;;;;;;10.05;9.05;;;6.50;99.90;;;;;;5048122;28;20252;-75
2022/03/19 03:50:41;;;;;;;9.98;8.65;;;6.50;99.90;;;;;;5054187;28;20222;-76
2022/03/19 03:53:09;;;;;;;11.05;9.95;;;6.50;99.90;;;;;;5037914;28;20220;-75
2022/03/19 03:55:38;;;;;;;10.65;9.63;;;6.40;99.90;;;;;;5041132;28;20260;-76
2022/03/19 03:58:06;;;;;;;11.30;10.07;;;6.40;99.90;;;;;;5036172;28;20207;-75
2022/03/19 04:00:34;;;;;;;12.48;11.10;;;6.40;99.90;;;;;;5038716;28;20619;-75
2022/03/19 04:03:01;;;;;;;11.82;10.73;;;6.40;99.90;;;;;;5035261;28;20229;-77
2022/03/19 04:05:29;;;;;;;11.63;10.27;;;6.30;99.90;;;;;;5037227;28;20400;-76
2022/03/19 04:07:56;;;;;;;11.20;10.10;;;6.30;99.90;;;;;;5029599;28;20195;-76
2022/03/19 04:10:23;;;;;;;10.85;9.75;;;6.30;99.90;;;;;;5042972;28;20225;-76
2022/03/19 04:12:50;;;;;;;11.48;10.27;;;6.30;99.90;;;;;;5035266;28;20220;-77
2022/03/19 04:15:18;;;;;;;12.40;11.10;;;6.30;99.90;;;;;;5033134;28;20216;-76
2022/03/19 04:17:45;;;;;;;20.30;10.07;;;6.30;99.90;;;;;;5031678;28;20207;-76
2022/03/19 04:20:14;;;;;;;12.25;9.98;;;6.30;99.90;;;;;;5041549;28;20284;-76
2022/03/19 04:22:44;;;;;;;10.13;9.13;;;6.30;99.90;;;;;;5034488;28;20219;-76
2022/03/19 04:25:12;;;;;;;11.10;10.00;;;6.30;99.90;;;;;;5037712;28;20293;-76
2022/03/19 04:27:40;;;;;;;11.38;10.27;;;6.30;99.90;;;;;;5024718;28;20219;-77
2022/03/19 04:30:08;;;;;;;12.43;9.52;;;6.20;99.90;;;;;;5038574;28;20686;-76
2022/03/19 04:32:41;;;;;;;10.80;9.70;;;6.20;99.90;;;;;;5043068;28;20629;-76
2022/03/19 04:37:51;;;;;;;12.82;9.75;;;6.20;99.90;;;;;;5035814;28;20197;-76
2022/03/19 04:40:18;;;;;;;13.82;11.10;;;6.10;99.90;;;;;;5035370;28;20693;-75
2022/03/19 04:42:45;;;;;;;12.30;10.70;;;6.10;99.90;;;;;;5035614;28;20684;-76
2022/03/19 04:45:13;;;;;;;12.45;11.10;;;6.00;99.90;;;;;;5035434;28;21267;-75
2022/03/19 04:47:40;;;;;;;13.70;12.18;;;5.90;99.90;;;;;;5029623;28;20618;-76
2022/03/19 04:50:08;;;;;;;13.25;11.88;;;5.90;99.90;;;;;;5030478;28;20203;-77
2022/03/19 04:52:35;;;;;;;13.13;11.50;;;5.90;99.90;;;;;;5037293;28;20211;-77
2022/03/19 04:55:04;;;;;;;12.45;11.25;;;5.80;99.90;;;;;;5031651;28;20195;-76
2022/03/19 04:57:32;;;;;;;12.90;11.68;;;5.80;99.90;;;;;;5037043;28;20551;-75
2022/03/19 05:00:00;;;;;;;11.02;9.93;;;5.80;99.90;;;;;;5037596;28;20260;-76
2022/03/19 05:02:27;;;;;;;11.65;10.38;;;5.80;99.90;;;;;;5032666;28;20219;-76
2022/03/19 05:04:55;;;;;;;11.00;9.90;;;5.80;99.90;;;;;;5036256;28;20674;-76
2022/03/19 05:07:22;;;;;;;10.57;9.57;;;5.80;99.90;;;;;;5034932;28;20225;-76
2022/03/19 05:12:38;;;;;;;10.88;9.88;;;5.70;99.90;;;;;;5040780;28;20587;-76
2022/03/19 05:15:07;;;;;;;11.98;10.63;;;5.70;99.90;;;;;;5037763;28;20200;-77
2022/03/19 05:17:34;;;;;;;19.83;14.10;;;5.70;99.90;;;;;;5034953;28;20192;-76
2022/03/19 05:20:01;;;;;;;22.40;14.50;;;5.70;99.90;;;;;;5037956;28;20576;-76
2022/03/19 05:22:30;;;;;;;21.23;13.32;;;5.70;99.90;;;;;;5035822;28;20231;-76
2022/03/19 05:24:57;;;;;;;18.33;12.48;;;5.70;99.90;;;;;;5039329;28;20221;-76
2022/03/19 05:27:24;;;;;;;19.13;12.15;;;5.70;99.90;;;;;;5036430;28;20314;-76
2022/03/19 05:29:53;;;;;;;14.55;11.65;;;5.70;99.90;;;;;;5031413;28;20199;-76
2022/03/19 05:32:20;;;;;;;11.15;9.93;;;5.70;99.90;;;;;;5033451;28;20218;-76
2022/03/19 05:34:48;;;;;;;11.30;9.25;;;5.70;99.90;;;;;;5036537;28;20615;-76
2022/03/19 05:37:16;;;;;;;11.60;10.02;;;5.70;99.90;;;;;;5035649;28;20191;-76
2022/03/19 05:39:43;;;;;;;10.00;8.90;;;5.80;99.90;;;;;;5027736;28;20228;-76
2022/03/19 05:42:12;;;;;;;11.23;10.10;;;5.80;99.90;;;;;;5034068;28;20648;-76
2022/03/19 05:44:39;;;;;;;12.02;9.63;;;5.80;99.90;;;;;;5031288;28;20314;-76
2022/03/19 05:47:08;;;;;;;10.60;8.80;;;5.80;99.90;;;;;;5024595;28;20695;-76
2022/03/19 05:49:35;;;;;;;10.05;8.98;;;5.80;99.90;;;;;;5038119;28;20223;-76
2022/03/19 05:52:02;;;;;;;10.13;9.13;;;5.90;99.90;;;;;;5033624;28;20272;-77
2022/03/19 05:54:29;;;;;;;10.32;9.13;;;5.90;99.90;;;;;;5036158;28;20280;-76
2022/03/19 05:56:56;;;;;;;11.32;10.13;;;5.90;99.90;;;;;;5037671;28;20633;-76
2022/03/19 05:59:23;;;;;;;9.88;8.90;;;5.90;99.90;;;;;;5030571;28;20214;-77
2022/03/19 06:01:50;;;;;;;11.20;10.10;;;5.90;99.90;;;;;;5022987;28;20704;-77
2022/03/19 06:04:19;;;;;;;14.60;11.88;;;6.00;99.90;;;;;;5025994;28;20216;-78
2022/03/19 06:06:47;;;;;;;11.77;10.57;;;6.00;99.90;;;;;;5031765;28;20712;-77
2022/03/19 06:09:14;;;;;;;13.05;10.60;;;6.00;99.90;;;;;;5024882;28;20223;-75
2022/03/19 06:11:42;;;;;;;11.40;10.07;;;6.10;99.90;;;;;;5028211;28;20223;-77
2022/03/19 06:14:09;;;;;;;10.68;9.68;;;6.20;99.90;;;;;;5031269;28;20251;-77
2022/03/19 06:16:37;;;;;;;11.75;10.55;;;6.20;99.90;;;;;;5037143;28;20191;-77
2022/03/19 06:19:04;;;;;;;11.25;9.68;;;6.40;99.90;;;;;;5035933;28;20758;-76
2022/03/19 06:21:32;;;;;;;10.55;9.55;;;6.80;99.90;;;;;;5036193;28;20234;-76
2022/03/19 06:23:59;;;;;;;11.02;9.93;;;7.20;99.90;;;;;;5042059;28;20214;-77
2022/03/19 06:26:26;;;;;;;12.27;10.98;;;7.60;99.90;;;;;;5031192;28;20685;-76
2022/03/19 06:28:53;;;;;;;11.48;10.27;;;7.80;99.90;;;;;;5039672;28;20214;-76
2022/03/19 06:31:20;;;;;;;12.45;11.13;;;8.10;99.90;;;;;;5039505;28;20219;-77
2022/03/19 06:33:48;;;;;;;16.10;12.35;;;8.30;99.90;;;;;;5036425;28;20219;-77
2022/03/19 06:39:01;;;;;;;12.90;11.07;;;8.70;99.90;;;;;;5032302;28;20223;-76
2022/03/19 06:41:28;;;;;;;13.27;11.88;;;9.10;99.90;;;;;;5038413;28;20290;-77
2022/03/19 06:43:55;;;;;;;13.95;12.48;;;9.40;99.90;;;;;;5044719;28;20214;-76
2022/03/19 06:46:22;;;;;;;16.42;12.50;;;9.60;99.90;;;;;;5039886;28;20274;-77
2022/03/19 06:48:49;;;;;;;14.10;12.38;;;9.80;99.90;;;;;;5033994;28;20223;-77
2022/03/19 06:51:17;;;;;;;14.18;12.73;;;9.90;99.90;;;;;;5042048;28;20260;-77
2022/03/19 06:53:45;;;;;;;13.07;11.70;;;10.00;99.90;;;;;;5038556;28;20240;-76
2022/03/19 06:56:14;;;;;;;13.95;12.55;;;10.10;99.90;;;;;;5039436;28;20658;-76
2022/03/19 06:58:41;;;;;;;14.18;12.77;;;10.00;99.90;;;;;;5032469;28;20313;-77
2022/03/19 07:01:14;;;;;;;14.85;13.05;;;10.00;99.90;;;;;;5037734;28;20208;-76
2022/03/19 07:03:43;;;;;;;16.83;13.52;;;10.20;99.90;;;;;;5033446;28;20215;-76
2022/03/19 07:06:10;;;;;;;14.60;13.15;;;10.30;99.90;;;;;;5037021;28;20210;-77
2022/03/19 07:08:37;;;;;;;15.23;12.75;;;10.60;99.90;;;;;;5039660;28;20223;-77
2022/03/19 07:11:04;;;;;;;15.38;13.80;;;10.80;99.90;;;;;;5034014;28;20625;-76
2022/03/19 07:13:33;;;;;;;15.55;13.93;;;11.00;99.90;;;;;;5035000;28;20211;-76
2022/03/19 07:16:00;;;;;;;14.65;13.18;;;11.10;99.90;;;;;;5036415;28;20298;-76
2022/03/19 07:18:27;;;;;;;17.42;14.10;;;11.40;99.90;;;;;;5041053;28;20223;-77
2022/03/19 07:20:54;;;;;;;15.65;14.05;;;11.60;99.90;;;;;;5037821;28;20292;-76
2022/03/19 07:23:21;;;;;;;17.83;14.88;;;11.70;99.90;;;;;;5033768;28;20234;-77
2022/03/19 07:25:49;;;;;;;16.98;15.15;;;11.90;99.90;;;;;;5029831;28;20192;-76
2022/03/19 07:28:19;;;;;;;19.17;15.30;;;11.90;99.90;;;;;;5034214;28;20268;-77
2022/03/19 07:30:48;;;;;;;15.10;13.60;;;12.00;99.90;;;;;;5032368;28;20213;-76
2022/03/19 07:33:15;;;;;;;16.30;14.10;;;12.10;99.90;;;;;;5036889;28;20249;-77
2022/03/19 07:35:43;;;;;;;17.65;15.50;;;12.30;99.90;;;;;;5035502;28;20196;-76
2022/03/19 07:38:11;;;;;;;15.77;14.18;;;12.50;99.90;;;;;;5042169;28;20220;-77
2022/03/19 07:43:24;;;;;;;16.17;14.57;;;12.50;99.90;;;;;;5032430;28;20230;-77
2022/03/19 07:45:53;;;;;;;17.10;14.75;;;12.70;99.90;;;;;;5029374;28;20607;-77
2022/03/19 07:48:20;;;;;;;18.90;14.20;;;12.70;99.90;;;;;;5022865;28;20235;-77
2022/03/19 07:50:48;;;;;;;15.60;13.68;;;12.80;99.90;;;;;;5026633;28;20230;-77
2022/03/19 07:53:15;;;;;;;16.27;12.48;;;12.80;99.90;;;;;;5025734;28;20700;-76
2022/03/19 07:55:42;;;;;;;16.75;14.98;;;13.00;99.90;;;;;;5026577;28;20198;-77
2022/03/19 07:58:10;;;;;;;16.27;14.38;;;13.10;99.90;;;;;;5021145;28;20196;-75
2022/03/19 08:00:37;;;;;;;18.30;14.20;;;13.10;99.90;;;;;;5024478;28;20769;-75
2022/03/19 08:03:06;;;;;;;17.25;14.30;;;13.00;99.90;;;;;;5027254;28;20224;-75
2022/03/19 08:05:33;;;;;;;16.77;14.75;;;12.90;99.90;;;;;;5036857;28;20636;-76
2022/03/19 08:08:01;;;;;;;15.73;14.13;;;12.70;99.90;;;;;;5025746;28;20723;-75
2022/03/19 08:10:28;;;;;;;18.23;13.73;;;12.50;99.90;;;;;;5034427;28;20204;-76
2022/03/19 08:13:04;;;;;;;14.27;12.77;;;12.80;99.90;;;;;;5027753;28;20223;-74
2022/03/19 08:15:31;;;;;;;17.27;12.25;;;12.90;99.90;;;;;;5026112;28;20199;-75
2022/03/19 08:17:59;;;;;;;17.70;13.52;;;12.80;99.90;;;;;;5027889;28;20279;-76
2022/03/19 08:20:28;;;;;;;15.70;13.27;;;13.10;99.90;;;;;;5029020;28;20198;-76
2022/03/19 08:22:56;;;;;;;17.35;13.50;;;13.30;99.90;;;;;;5023362;28;20296;-75
2022/03/19 08:25:23;;;;;;;17.95;14.68;;;13.40;99.90;;;;;;5017882;28;20224;-77
2022/03/19 08:27:51;;;;;;;19.15;13.85;;;13.40;99.90;;;;;;5024306;28;20223;-78
2022/03/19 08:30:19;;;;;;;17.65;14.70;;;13.50;99.90;;;;;;5026524;28;20242;-77
2022/03/19 08:32:46;;;;;;;23.23;16.05;;;13.40;99.90;;;;;;5023009;28;20247;-77
2022/03/19 08:35:14;;;;;;;17.88;14.60;;;13.40;99.90;;;;;;5026233;28;20706;-78
2022/03/19 08:37:42;;;;;;;15.77;13.88;;;13.20;99.90;;;;;;5019370;28;22083;-78
2022/03/19 08:40:15;;;;;;;16.05;13.77;;;13.10;99.90;;;;;;5021764;28;20234;-78
2022/03/19 08:42:43;;;;;;;14.93;13.05;;;12.80;99.90;;;;;;5029206;28;20227;-78
2022/03/19 08:45:11;;;;;;;18.48;14.35;;;12.70;99.90;;;;;;5026149;28;20228;-77
2022/03/19 08:47:38;;;;;;;14.63;13.23;;;12.70;99.90;;;;;;5019210;28;20215;-77
2022/03/19 08:50:07;;;;;;;16.63;14.32;;;12.90;99.90;;;;;;5026127;28;20647;-76
2022/03/19 08:52:34;;;;;;;14.95;13.45;;;12.70;99.90;;;;;;5031452;28;20250;-78
2022/03/19 08:55:04;;;;;;;16.30;14.60;;;12.90;99.90;;;;;;5029676;28;20798;-78
2022/03/19 08:57:32;;;;;;;16.13;14.43;;;12.90;99.90;;;;;;5022102;28;20284;-76
2022/03/19 08:59:59;;;;;;;16.33;13.88;;;12.90;99.90;;;;;;5030410;28;20247;-76
2022/03/19 09:02:26;;;;;;;18.65;13.73;;;12.90;99.90;;;;;;5020200;28;20419;-76
2022/03/19 09:04:53;;;;;;;22.45;15.10;;;12.90;99.90;;;;;;5016259;28;20215;-76
2022/03/19 09:07:20;;;;;;;19.35;14.55;;;13.00;99.90;;;;;;5021916;28;20215;-76
2022/03/19 09:09:52;;;;;;;14.50;12.43;;;13.20;99.90;;;;;;5020078;28;20268;-77
2022/03/19 09:12:23;;;;;;;15.88;14.27;;;13.20;99.90;;;;;;5023834;28;20277;-76
2022/03/19 09:14:50;;;;;;;17.25;13.93;;;13.70;99.90;;;;;;5021126;28;20227;-77
2022/03/19 09:17:17;;;;;;;17.52;14.48;;;13.70;99.90;;;;;;5025215;28;20272;-75
2022/03/19 09:19:45;;;;;;;15.18;13.45;;;13.80;99.90;;;;;;5022614;28;20232;-76
2022/03/19 09:22:12;;;;;;;17.83;14.65;;;14.00;99.90;;;;;;5023337;28;20223;-76
2022/03/19 09:24:39;;;;;;;15.98;14.48;;;14.00;99.90;;;;;;5031585;28;20227;-76
2022/03/19 09:27:06;;;;;;;15.40;13.10;;;14.30;99.90;;;;;;5035490;28;20473;-75
2022/03/19 09:29:34;;;;;;;14.23;12.52;;;14.00;99.90;;;;;;5028375;28;20258;-77
2022/03/19 09:32:02;;;;;;;14.90;13.00;;;14.50;99.90;;;;;;5026470;28;20760;-75
2022/03/19 09:34:30;;;;;;;15.07;13.48;;;14.30;99.90;;;;;;5019997;28;20314;-76
2022/03/19 09:36:57;;;;;;;13.70;12.30;;;14.20;99.90;;;;;;5027660;28;20389;-76
2022/03/19 09:39:24;;;;;;;16.17;13.07;;;14.20;99.90;;;;;;5029508;28;20215;-75
2022/03/19 09:41:51;;;;;;;12.90;11.65;;;14.30;99.90;;;;;;5028081;28;20222;-75
2022/03/19 09:44:19;;;;;;;16.38;12.20;;;14.60;99.90;;;;;;5028263;23;20287;-79
2022/03/19 09:46:48;;;;;;;14.45;12.07;;;14.70;99.90;;;;;;5012774;28;20267;-76
2022/03/19 09:49:15;;;;;;;13.55;12.15;;;14.60;99.90;;;;;;5009508;28;20284;-80
2022/03/19 09:51:49;;;;;;;15.05;12.98;;;14.80;99.90;;;;;;5013528;28;20296;-80
2022/03/19 09:54:16;;;;;;;12.93;11.63;;;14.80;99.90;;;;;;4985310;28;20251;-77
2022/03/19 09:56:43;;;;;;;14.40;12.20;;;14.70;99.90;;;;;;4992340;28;20689;-79
2022/03/19 09:59:10;;;;;;;16.40;12.02;;;14.50;99.90;;;;;;4989598;28;20228;-77
2022/03/19 10:01:39;;;;;;;17.05;12.65;;;14.50;99.90;;;;;;4986071;28;20212;-76
2022/03/19 10:04:08;;;;;;;16.00;12.82;;;14.60;99.90;;;;;;4990073;28;20911;-77
2022/03/19 10:09:33;;;;;;;14.68;11.85;;;14.70;99.90;;;;;;4993075;28;20290;-82
2022/03/19 10:12:02;;;;;;;15.25;11.93;;;14.90;99.90;;;;;;4993216;28;20654;-76
2022/03/19 10:14:32;;;;;;;14.98;12.48;;;15.00;99.90;;;;;;4996745;28;20312;-76
2022/03/19 10:16:59;;;;;;;13.57;12.18;;;15.30;99.90;;;;;;4997934;28;20201;-75
2022/03/19 10:19:27;;;;;;;13.15;11.38;;;15.20;99.90;;;;;;4987794;28;20225;-75
2022/03/19 10:22:05;;;;;;;20.25;12.80;;;15.00;99.90;;;;;;4984447;28;20671;-76
2022/03/19 10:24:38;;;;;;;16.63;13.88;;;15.10;99.90;;;;;;5004651;28;20449;-76
2022/03/19 10:27:05;;;;;;;14.50;12.43;;;15.10;99.90;;;;;;4996666;28;20255;-76
2022/03/19 10:29:35;;;;;;;14.55;12.07;;;15.10;99.90;;;;;;5001361;28;20232;-79
2022/03/19 10:32:05;;;;;;;16.52;12.05;;;15.10;99.90;;;;;;5008745;28;20300;-76
2022/03/19 10:34:35;;;;;;;13.68;12.27;;;15.10;99.90;;;;;;5004022;28;20347;-80
2022/03/19 10:37:03;;;;;;;15.18;13.00;;;15.20;99.90;;;;;;4999269;28;20235;-76
2022/03/19 10:39:31;;;;;;;13.48;11.80;;;15.20;99.90;;;;;;4995126;28;20216;-80
2022/03/19 10:41:59;;;;;;;13.68;12.25;;;15.00;99.90;;;;;;5007694;28;20200;-79
2022/03/19 10:44:28;;;;;;;13.57;11.63;;;15.10;99.90;;;;;;4988083;28;20230;-79
2022/03/19 10:46:57;;;;;;;14.45;12.95;;;15.30;99.90;;;;;;5000193;28;20193;-86
2022/03/19 10:49:25;;;;;;;16.20;12.98;;;15.40;99.90;;;;;;4999127;28;20236;-77
2022/03/19 10:51:55;;;;;;;17.58;13.38;;;15.50;99.90;;;;;;5001891;28;20208;-77
2022/03/19 10:54:22;;;;;;;14.68;12.80;;;15.40;99.90;;;;;;5002120;28;20240;-77
2022/03/19 10:56:51;;;;;;;15.50;13.90;;;15.40;99.90;;;;;;5000082;28;20654;-77
2022/03/19 10:59:19;;;;;;;15.15;13.10;;;15.50;99.90;;;;;;5007593;28;20729;-79
2022/03/19 11:01:49;;;;;;;16.02;14.38;;;15.40;99.90;;;;;;5006061;28;20284;-79
2022/03/19 11:04:16;;;;;;;18.05;14.15;;;15.40;99.90;;;;;;4999614;28;20227;-77
2022/03/19 11:06:46;;;;;;;19.38;15.18;;;15.30;99.90;;;;;;5008161;28;20207;-77
2022/03/19 11:09:16;;;;;;;16.52;14.27;;;15.20;99.90;;;;;;5001768;28;20258;-75
2022/03/19 11:11:52;;;;;;;16.38;13.98;;;15.30;99.90;;;;;;4994924;28;20221;-77
2022/03/19 11:14:23;;;;;;;15.43;12.90;;;15.40;99.90;;;;;;4999250;28;20418;-79
2022/03/19 11:19:41;;;;;;;17.15;14.07;;;16.00;99.90;;;;;;5012550;28;20528;-82
2022/03/19 11:22:08;;;;;;;14.68;11.85;;;16.60;99.90;;;;;;5007761;28;20204;-78
2022/03/19 11:24:45;;;;;;;12.52;10.55;;;17.20;99.90;;;;;;5002903;28;20271;-78
2022/03/19 11:27:13;;;;;;;17.63;10.90;;;17.90;99.90;;;;;;5001935;28;20208;-80
2022/03/19 11:29:41;;;;;;;12.40;9.48;;;18.10;99.90;;;;;;4996814;28;20251;-77
2022/03/19 11:32:08;;;;;;;11.43;9.68;;;17.80;98.00;;;;;;4998198;28;20209;-77
2022/03/19 11:34:46;;;;;;;10.02;9.02;;;17.30;97.80;;;;;;5000167;28;20645;-79
2022/03/19 11:37:13;;;;;;;10.90;9.90;;;17.10;96.60;;;;;;5004199;28;20210;-77
2022/03/19 11:40:05;;;;;;;12.05;9.70;;;17.00;97.90;;;;;;5004633;28;20224;-77
2022/03/19 11:42:32;;;;;;;16.75;10.75;;;17.00;96.80;;;;;;4977825;28;20913;-79
2022/03/19 11:45:10;;;;;;;12.60;10.02;;;16.70;97.60;;;;;;4979031;28;20250;-77
2022/03/19 11:47:38;;;;;;;12.57;10.30;;;16.70;96.90;;;;;;4988562;28;20192;-77
2022/03/19 11:50:19;;;;;;;14.38;10.65;;;16.60;97.30;;;;;;4979249;28;20227;-79
2022/03/19 11:53:07;;;;;;;15.23;10.43;;;16.60;97.80;;;;;;4990488;28;20624;-78
2022/03/19 11:55:43;;;;;;;12.98;11.25;;;16.60;96.80;;;;;;4984871;28;20227;-76
2022/03/19 11:58:14;;;;;;;17.88;11.00;;;16.30;95.30;;;;;;4989488;28;20200;-77
2022/03/19 12:00:42;;;;;;;16.27;11.68;;;16.10;96.20;;;;;;4991139;28;20225;-81
2022/03/19 12:03:12;;;;;;;17.88;11.18;;;16.20;96.00;;;;;;4984103;28;20224;-78
2022/03/19 12:05:41;;;;;;;13.35;10.68;;;16.30;96.90;;;;;;4985121;28;20221;-79
2022/03/19 12:08:12;;;;;;;12.52;10.52;;;16.50;97.10;;;;;;4994221;28;20916;-75
2022/03/19 12:10:57;;;;;;;13.55;11.43;;;16.60;96.80;;;;;;4988098;28;20221;-80
2022/03/19 12:13:39;;;;;;;13.30;11.45;;;16.50;96.00;;;;;;4992903;28;20216;-78
2022/03/19 12:16:08;;;;;;;18.08;12.88;;;16.30;96.50;;;;;;4992843;28;20224;-77
2022/03/19 12:18:46;;;;;;;14.35;11.38;;;16.20;95.60;;;;;;5001217;28;20205;-77
2022/03/19 12:21:21;;;;;;;15.30;12.10;;;16.10;96.20;;;;;;4998740;28;20283;-80
2022/03/19 12:24:15;;;;;;;13.23;11.82;;;15.70;95.50;;;;;;4992601;28;20273;-77
2022/03/19 12:26:45;;;;;;;13.40;11.52;;;16.00;95.90;;;;;;4989863;28;20658;-77
2022/03/19 12:29:14;;;;;;;15.80;10.98;;;15.80;94.20;;;;;;4990849;28;20303;-78
2022/03/19 12:31:44;;;;;;;16.58;11.35;;;15.90;94.80;;;;;;4998489;28;20876;-77
2022/03/19 12:34:15;;;;;;;14.57;11.95;;;16.00;94.70;;;;;;4989780;28;20244;-79
2022/03/19 12:36:42;;;;;;;17.85;12.68;;;15.80;94.20;;;;;;4998725;28;20327;-79
2022/03/19 12:39:10;;;;;;;14.73;12.13;;;15.40;94.60;;;;;;4994672;28;20192;-77
2022/03/19 12:41:37;;;;;;;14.85;12.27;;;15.30;94.40;;;;;;4984000;28;20229;-77
2022/03/19 12:44:07;;;;;;;15.98;12.68;;;15.40;94.70;;;;;;4992061;28;20232;-78
2022/03/19 12:46:36;;;;;;;15.15;13.57;;;15.30;94.80;;;;;;4988353;28;20225;-76
2022/03/19 12:49:05;;;;;;;15.95;14.00;;;15.30;95.20;;;;;;4988734;28;20248;-75
2022/03/19 12:51:33;;;;;;;14.90;13.15;;;15.20;95.10;;;;;;4984679;28;20682;-75
2022/03/19 12:54:00;;;;;;;13.38;11.98;;;15.30;95.40;;;;;;4984133;28;20250;-77
2022/03/19 12:56:28;;;;;;;16.80;13.32;;;15.40;95.30;;;;;;4982115;28;20687;-78
2022/03/19 12:58:58;;;;;;;16.85;12.77;;;15.30;95.10;;;;;;4981738;28;20197;-75
2022/03/19 13:01:28;;;;;;;16.85;13.75;;;15.10;95.40;;;;;;4983493;28;20227;-76
2022/03/19 13:03:56;;;;;;;16.45;13.35;;;15.20;95.60;;;;;;4990867;28;20232;-74